sensor_id;sensor_type;location;lat;lon;timestamp;P1;durP1;ratioP1;P2;durP2;ratioP2
22778;SDS011;11556;51.194;3.800;2022-10-29T00:01:19;19.13;;;6.10;;
22778;SDS011;11556;51.194;3.800;2022-10-29T00:03:45;18.70;;;6.80;;
22778;SDS011;11556;51.194;3.800;2022-10-29T00:06:12;21.58;;;6.70;;
22778;SDS011;11556;51.194;3.800;2022-10-29T00:08:39;21.20;;;6.13;;
22778;SDS011;11556;51.194;3.800;2022-10-29T00:11:12;14.77;;;6.13;;
22778;SDS011;11556;51.194;3.800;2022-10-29T00:13:40;13.98;;;6.32;;
22778;SDS011;11556;51.194;3.800;2022-10-29T00:16:07;16.33;;;5.75;;
22778;SDS011;11556;51.194;3.800;2022-10-29T00:18:35;20.40;;;6.53;;
22778;SDS011;11556;51.194;3.800;2022-10-29T00:21:01;13.98;;;5.75;;
22778;SDS011;11556;51.194;3.800;2022-10-29T00:23:28;15.65;;;5.93;;
22778;SDS011;11556;51.194;3.800;2022-10-29T00:25:55;17.52;;;6.43;;
22778;SDS011;11556;51.194;3.800;2022-10-29T00:28:25;18.40;;;5.72;;
22778;SDS011;11556;51.194;3.800;2022-10-29T00:30:51;21.80;;;6.00;;
22778;SDS011;11556;51.194;3.800;2022-10-29T00:33:16;18.95;;;6.00;;
22778;SDS011;11556;51.194;3.800;2022-10-29T00:35:52;19.55;;;6.50;;
22778;SDS011;11556;51.194;3.800;2022-10-29T00:38:22;16.35;;;6.90;;
22778;SDS011;11556;51.194;3.800;2022-10-29T00:40:48;19.77;;;6.28;;
22778;SDS011;11556;51.194;3.800;2022-10-29T00:43:15;15.77;;;6.60;;
22778;SDS011;11556;51.194;3.800;2022-10-29T00:45:47;17.45;;;6.78;;
22778;SDS011;11556;51.194;3.800;2022-10-29T00:48:23;25.70;;;7.38;;
22778;SDS011;11556;51.194;3.800;2022-10-29T00:50:51;15.57;;;6.72;;
22778;SDS011;11556;51.194;3.800;2022-10-29T00:53:18;16.08;;;6.53;;
22778;SDS011;11556;51.194;3.800;2022-10-29T00:55:47;17.83;;;7.45;;
22778;SDS011;11556;51.194;3.800;2022-10-29T00:58:13;17.42;;;7.60;;
22778;SDS011;11556;51.194;3.800;2022-10-29T01:00:39;17.08;;;7.00;;
22778;SDS011;11556;51.194;3.800;2022-10-29T01:03:05;21.48;;;8.07;;
22778;SDS011;11556;51.194;3.800;2022-10-29T01:05:31;21.95;;;9.05;;
22778;SDS011;11556;51.194;3.800;2022-10-29T01:07:59;22.80;;;8.68;;
22778;SDS011;11556;51.194;3.800;2022-10-29T01:10:31;21.50;;;9.10;;
22778;SDS011;11556;51.194;3.800;2022-10-29T01:21:55;22.00;;;10.18;;
22778;SDS011;11556;51.194;3.800;2022-10-29T01:24:37;25.50;;;9.98;;
22778;SDS011;11556;51.194;3.800;2022-10-29T01:29:55;26.15;;;11.73;;
22778;SDS011;11556;51.194;3.800;2022-10-29T01:32:33;27.75;;;11.27;;
22778;SDS011;11556;51.194;3.800;2022-10-29T01:40:45;27.50;;;12.00;;
22778;SDS011;11556;51.194;3.800;2022-10-29T01:43:19;30.17;;;13.88;;
22778;SDS011;11556;51.194;3.800;2022-10-29T01:46:20;29.55;;;13.27;;
22778;SDS011;11556;51.194;3.800;2022-10-29T01:48:50;29.02;;;13.45;;
22778;SDS011;11556;51.194;3.800;2022-10-29T01:51:30;30.02;;;12.50;;
22778;SDS011;11556;51.194;3.800;2022-10-29T01:53:57;27.45;;;13.57;;
22778;SDS011;11556;51.194;3.800;2022-10-29T01:56:24;27.27;;;13.35;;
22778;SDS011;11556;51.194;3.800;2022-10-29T01:58:51;28.92;;;13.98;;
22778;SDS011;11556;51.194;3.800;2022-10-29T02:01:25;28.77;;;13.38;;
22778;SDS011;11556;51.194;3.800;2022-10-29T02:03:59;24.85;;;12.20;;
22778;SDS011;11556;51.194;3.800;2022-10-29T02:09:40;29.40;;;14.05;;
22778;SDS011;11556;51.194;3.800;2022-10-29T02:12:22;34.50;;;14.93;;
22778;SDS011;11556;51.194;3.800;2022-10-29T02:14:53;29.85;;;13.80;;
22778;SDS011;11556;51.194;3.800;2022-10-29T02:17:33;27.40;;;12.85;;
22778;SDS011;11556;51.194;3.800;2022-10-29T02:20:07;27.40;;;12.73;;
22778;SDS011;11556;51.194;3.800;2022-10-29T02:22:34;27.08;;;13.20;;
22778;SDS011;11556;51.194;3.800;2022-10-29T02:25:00;31.63;;;13.80;;
22778;SDS011;11556;51.194;3.800;2022-10-29T02:27:27;27.30;;;13.90;;
22778;SDS011;11556;51.194;3.800;2022-10-29T02:29:52;32.15;;;14.60;;
22778;SDS011;11556;51.194;3.800;2022-10-29T02:32:18;26.98;;;15.55;;
22778;SDS011;11556;51.194;3.800;2022-10-29T02:34:43;25.95;;;13.55;;
22778;SDS011;11556;51.194;3.800;2022-10-29T02:37:09;29.17;;;13.52;;
22778;SDS011;11556;51.194;3.800;2022-10-29T02:39:35;27.70;;;12.90;;
22778;SDS011;11556;51.194;3.800;2022-10-29T02:42:00;27.33;;;13.95;;
22778;SDS011;11556;51.194;3.800;2022-10-29T02:44:26;33.97;;;14.82;;
22778;SDS011;11556;51.194;3.800;2022-10-29T02:46:51;31.05;;;13.77;;
22778;SDS011;11556;51.194;3.800;2022-10-29T02:49:17;34.78;;;14.07;;
22778;SDS011;11556;51.194;3.800;2022-10-29T02:51:42;27.23;;;11.18;;
22778;SDS011;11556;51.194;3.800;2022-10-29T02:54:08;26.98;;;12.73;;
22778;SDS011;11556;51.194;3.800;2022-10-29T02:56:33;28.95;;;11.82;;
22778;SDS011;11556;51.194;3.800;2022-10-29T02:58:59;28.25;;;12.52;;
22778;SDS011;11556;51.194;3.800;2022-10-29T03:01:24;29.00;;;13.05;;
22778;SDS011;11556;51.194;3.800;2022-10-29T03:03:50;30.50;;;12.52;;
22778;SDS011;11556;51.194;3.800;2022-10-29T03:06:16;26.83;;;14.13;;
22778;SDS011;11556;51.194;3.800;2022-10-29T03:08:43;31.63;;;13.65;;
22778;SDS011;11556;51.194;3.800;2022-10-29T03:11:09;30.35;;;13.85;;
22778;SDS011;11556;51.194;3.800;2022-10-29T03:13:36;30.60;;;13.82;;
22778;SDS011;11556;51.194;3.800;2022-10-29T03:16:02;29.30;;;13.05;;
22778;SDS011;11556;51.194;3.800;2022-10-29T03:18:28;25.42;;;13.10;;
22778;SDS011;11556;51.194;3.800;2022-10-29T03:20:53;31.42;;;13.82;;
22778;SDS011;11556;51.194;3.800;2022-10-29T03:23:19;30.42;;;13.00;;
22778;SDS011;11556;51.194;3.800;2022-10-29T03:25:49;28.38;;;13.18;;
22778;SDS011;11556;51.194;3.800;2022-10-29T03:28:17;29.98;;;13.70;;
22778;SDS011;11556;51.194;3.800;2022-10-29T03:30:43;23.63;;;12.85;;
22778;SDS011;11556;51.194;3.800;2022-10-29T03:33:09;27.00;;;12.82;;
22778;SDS011;11556;51.194;3.800;2022-10-29T03:35:34;23.88;;;12.23;;
22778;SDS011;11556;51.194;3.800;2022-10-29T03:38:00;25.77;;;12.70;;
22778;SDS011;11556;51.194;3.800;2022-10-29T03:40:25;28.50;;;12.75;;
22778;SDS011;11556;51.194;3.800;2022-10-29T03:42:51;26.63;;;12.65;;
22778;SDS011;11556;51.194;3.800;2022-10-29T03:45:17;22.88;;;12.18;;
22778;SDS011;11556;51.194;3.800;2022-10-29T03:47:42;23.52;;;12.05;;
22778;SDS011;11556;51.194;3.800;2022-10-29T03:50:08;24.23;;;11.63;;
22778;SDS011;11556;51.194;3.800;2022-10-29T03:52:34;25.38;;;11.65;;
22778;SDS011;11556;51.194;3.800;2022-10-29T03:55:00;24.48;;;10.77;;
22778;SDS011;11556;51.194;3.800;2022-10-29T03:57:25;22.85;;;9.60;;
22778;SDS011;11556;51.194;3.800;2022-10-29T03:59:51;25.60;;;10.60;;
22778;SDS011;11556;51.194;3.800;2022-10-29T04:02:17;21.45;;;9.95;;
22778;SDS011;11556;51.194;3.800;2022-10-29T04:04:42;22.20;;;9.70;;
22778;SDS011;11556;51.194;3.800;2022-10-29T04:07:08;19.75;;;10.25;;
22778;SDS011;11556;51.194;3.800;2022-10-29T04:09:33;23.48;;;10.90;;
22778;SDS011;11556;51.194;3.800;2022-10-29T04:11:59;28.55;;;10.30;;
22778;SDS011;11556;51.194;3.800;2022-10-29T04:14:25;23.70;;;10.07;;
22778;SDS011;11556;51.194;3.800;2022-10-29T04:16:50;24.77;;;11.68;;
22778;SDS011;11556;51.194;3.800;2022-10-29T04:19:16;23.50;;;11.55;;
22778;SDS011;11556;51.194;3.800;2022-10-29T04:21:41;24.65;;;11.00;;
22778;SDS011;11556;51.194;3.800;2022-10-29T04:24:07;20.92;;;10.80;;
22778;SDS011;11556;51.194;3.800;2022-10-29T04:26:33;22.80;;;10.88;;
22778;SDS011;11556;51.194;3.800;2022-10-29T04:28:58;27.70;;;11.55;;
22778;SDS011;11556;51.194;3.800;2022-10-29T04:31:24;21.85;;;11.38;;
22778;SDS011;11556;51.194;3.800;2022-10-29T04:33:51;24.45;;;11.40;;
22778;SDS011;11556;51.194;3.800;2022-10-29T04:36:17;25.48;;;11.70;;
22778;SDS011;11556;51.194;3.800;2022-10-29T04:38:43;22.25;;;11.65;;
22778;SDS011;11556;51.194;3.800;2022-10-29T04:41:08;27.63;;;11.65;;
22778;SDS011;11556;51.194;3.800;2022-10-29T04:43:34;23.35;;;11.77;;
22778;SDS011;11556;51.194;3.800;2022-10-29T04:45:59;26.58;;;12.50;;
22778;SDS011;11556;51.194;3.800;2022-10-29T04:48:25;27.42;;;12.60;;
22778;SDS011;11556;51.194;3.800;2022-10-29T04:50:52;24.42;;;13.07;;
22778;SDS011;11556;51.194;3.800;2022-10-29T04:53:18;27.17;;;12.90;;
22778;SDS011;11556;51.194;3.800;2022-10-29T04:55:44;30.50;;;12.70;;
22778;SDS011;11556;51.194;3.800;2022-10-29T04:58:14;25.63;;;13.43;;
22778;SDS011;11556;51.194;3.800;2022-10-29T05:00:41;29.23;;;12.95;;
22778;SDS011;11556;51.194;3.800;2022-10-29T05:03:08;33.60;;;14.05;;
22778;SDS011;11556;51.194;3.800;2022-10-29T05:05:34;27.50;;;13.10;;
22778;SDS011;11556;51.194;3.800;2022-10-29T05:08:04;35.13;;;13.15;;
22778;SDS011;11556;51.194;3.800;2022-10-29T05:10:31;26.83;;;13.13;;
22778;SDS011;11556;51.194;3.800;2022-10-29T05:12:59;32.85;;;13.40;;
22778;SDS011;11556;51.194;3.800;2022-10-29T05:15:35;28.30;;;12.93;;
22778;SDS011;11556;51.194;3.800;2022-10-29T05:18:01;24.13;;;12.38;;
22778;SDS011;11556;51.194;3.800;2022-10-29T05:20:27;37.53;;;13.13;;
22778;SDS011;11556;51.194;3.800;2022-10-29T05:23:00;30.50;;;13.07;;
22778;SDS011;11556;51.194;3.800;2022-10-29T05:25:27;25.90;;;12.88;;
22778;SDS011;11556;51.194;3.800;2022-10-29T05:28:12;30.73;;;12.93;;
22778;SDS011;11556;51.194;3.800;2022-10-29T05:30:42;24.83;;;13.13;;
22778;SDS011;11556;51.194;3.800;2022-10-29T05:33:09;33.45;;;13.60;;
22778;SDS011;11556;51.194;3.800;2022-10-29T05:35:36;26.40;;;13.57;;
22778;SDS011;11556;51.194;3.800;2022-10-29T05:38:02;26.13;;;13.30;;
22778;SDS011;11556;51.194;3.800;2022-10-29T05:40:28;39.65;;;14.50;;
22778;SDS011;11556;51.194;3.800;2022-10-29T05:42:54;37.80;;;18.17;;
22778;SDS011;11556;51.194;3.800;2022-10-29T05:45:20;47.17;;;21.63;;
22778;SDS011;11556;51.194;3.800;2022-10-29T05:47:45;36.28;;;21.52;;
22778;SDS011;11556;51.194;3.800;2022-10-29T05:50:11;48.90;;;21.65;;
22778;SDS011;11556;51.194;3.800;2022-10-29T05:52:38;41.88;;;20.70;;
22778;SDS011;11556;51.194;3.800;2022-10-29T05:55:04;43.88;;;20.60;;
22778;SDS011;11556;51.194;3.800;2022-10-29T05:57:30;37.80;;;18.30;;
22778;SDS011;11556;51.194;3.800;2022-10-29T05:59:56;27.20;;;14.82;;
22778;SDS011;11556;51.194;3.800;2022-10-29T06:02:22;28.17;;;13.73;;
22778;SDS011;11556;51.194;3.800;2022-10-29T06:04:47;26.17;;;13.55;;
22778;SDS011;11556;51.194;3.800;2022-10-29T06:07:13;31.90;;;12.73;;
22778;SDS011;11556;51.194;3.800;2022-10-29T06:09:38;30.38;;;13.27;;
22778;SDS011;11556;51.194;3.800;2022-10-29T06:12:04;29.33;;;12.68;;
22778;SDS011;11556;51.194;3.800;2022-10-29T06:14:30;31.83;;;12.98;;
22778;SDS011;11556;51.194;3.800;2022-10-29T06:16:56;32.60;;;14.27;;
22778;SDS011;11556;51.194;3.800;2022-10-29T06:19:21;26.02;;;12.80;;
22778;SDS011;11556;51.194;3.800;2022-10-29T06:21:47;27.02;;;12.45;;
22778;SDS011;11556;51.194;3.800;2022-10-29T06:24:12;24.42;;;12.65;;
22778;SDS011;11556;51.194;3.800;2022-10-29T06:26:38;27.13;;;13.32;;
22778;SDS011;11556;51.194;3.800;2022-10-29T06:29:05;28.83;;;12.63;;
22778;SDS011;11556;51.194;3.800;2022-10-29T06:31:30;24.50;;;12.98;;
22778;SDS011;11556;51.194;3.800;2022-10-29T06:33:56;23.67;;;13.10;;
22778;SDS011;11556;51.194;3.800;2022-10-29T06:36:22;31.80;;;13.63;;
22778;SDS011;11556;51.194;3.800;2022-10-29T06:38:47;26.83;;;14.20;;
22778;SDS011;11556;51.194;3.800;2022-10-29T06:41:13;31.48;;;13.57;;
22778;SDS011;11556;51.194;3.800;2022-10-29T06:43:39;30.92;;;13.82;;
22778;SDS011;11556;51.194;3.800;2022-10-29T06:46:05;28.88;;;14.07;;
22778;SDS011;11556;51.194;3.800;2022-10-29T06:48:30;34.53;;;14.27;;
22778;SDS011;11556;51.194;3.800;2022-10-29T06:50:59;27.13;;;13.50;;
22778;SDS011;11556;51.194;3.800;2022-10-29T06:53:25;28.60;;;13.73;;
22778;SDS011;11556;51.194;3.800;2022-10-29T06:55:51;32.55;;;13.13;;
22778;SDS011;11556;51.194;3.800;2022-10-29T06:58:17;31.75;;;15.18;;
22778;SDS011;11556;51.194;3.800;2022-10-29T07:00:44;33.58;;;15.90;;
22778;SDS011;11556;51.194;3.800;2022-10-29T07:03:13;30.23;;;13.00;;
22778;SDS011;11556;51.194;3.800;2022-10-29T07:05:40;24.08;;;12.63;;
22778;SDS011;11556;51.194;3.800;2022-10-29T07:08:06;31.90;;;13.90;;
22778;SDS011;11556;51.194;3.800;2022-10-29T07:10:32;25.20;;;12.57;;
22778;SDS011;11556;51.194;3.800;2022-10-29T07:12:58;28.02;;;12.98;;
22778;SDS011;11556;51.194;3.800;2022-10-29T07:15:24;22.67;;;12.52;;
22778;SDS011;11556;51.194;3.800;2022-10-29T07:17:56;25.75;;;12.52;;
22778;SDS011;11556;51.194;3.800;2022-10-29T07:20:23;29.45;;;12.50;;
22778;SDS011;11556;51.194;3.800;2022-10-29T07:22:50;25.15;;;12.35;;
22778;SDS011;11556;51.194;3.800;2022-10-29T07:25:16;26.17;;;11.90;;
22778;SDS011;11556;51.194;3.800;2022-10-29T07:27:41;21.65;;;11.50;;
22778;SDS011;11556;51.194;3.800;2022-10-29T07:30:07;21.95;;;10.73;;
22778;SDS011;11556;51.194;3.800;2022-10-29T07:32:33;29.65;;;12.57;;
22778;SDS011;11556;51.194;3.800;2022-10-29T07:34:58;28.45;;;11.77;;
22778;SDS011;11556;51.194;3.800;2022-10-29T07:37:24;28.27;;;11.30;;
22778;SDS011;11556;51.194;3.800;2022-10-29T07:39:49;24.13;;;10.77;;
22778;SDS011;11556;51.194;3.800;2022-10-29T07:42:15;36.85;;;11.43;;
22778;SDS011;11556;51.194;3.800;2022-10-29T07:44:40;22.02;;;10.43;;
22778;SDS011;11556;51.194;3.800;2022-10-29T07:47:06;23.02;;;10.68;;
22778;SDS011;11556;51.194;3.800;2022-10-29T07:49:32;21.05;;;10.52;;
22778;SDS011;11556;51.194;3.800;2022-10-29T07:51:57;21.90;;;9.30;;
22778;SDS011;11556;51.194;3.800;2022-10-29T07:54:23;19.88;;;9.43;;
22778;SDS011;11556;51.194;3.800;2022-10-29T07:56:50;17.70;;;9.55;;
22778;SDS011;11556;51.194;3.800;2022-10-29T07:59:16;20.35;;;9.50;;
22778;SDS011;11556;51.194;3.800;2022-10-29T08:01:43;22.58;;;9.43;;
22778;SDS011;11556;51.194;3.800;2022-10-29T08:04:09;23.92;;;9.88;;
22778;SDS011;11556;51.194;3.800;2022-10-29T08:06:35;22.25;;;9.55;;
22778;SDS011;11556;51.194;3.800;2022-10-29T08:09:00;22.77;;;8.40;;
22778;SDS011;11556;51.194;3.800;2022-10-29T08:11:26;18.08;;;8.18;;
22778;SDS011;11556;51.194;3.800;2022-10-29T08:13:51;23.00;;;8.25;;
22778;SDS011;11556;51.194;3.800;2022-10-29T08:16:17;17.85;;;7.90;;
22778;SDS011;11556;51.194;3.800;2022-10-29T08:18:43;19.50;;;8.15;;
22778;SDS011;11556;51.194;3.800;2022-10-29T08:21:08;21.73;;;8.32;;
22778;SDS011;11556;51.194;3.800;2022-10-29T08:23:34;20.58;;;7.85;;
22778;SDS011;11556;51.194;3.800;2022-10-29T08:25:59;18.35;;;8.43;;
22778;SDS011;11556;51.194;3.800;2022-10-29T08:28:26;19.50;;;8.18;;
22778;SDS011;11556;51.194;3.800;2022-10-29T08:30:52;24.30;;;8.50;;
22778;SDS011;11556;51.194;3.800;2022-10-29T08:33:18;20.25;;;8.25;;
22778;SDS011;11556;51.194;3.800;2022-10-29T08:35:44;21.75;;;8.75;;
22778;SDS011;11556;51.194;3.800;2022-10-29T08:38:10;20.42;;;8.25;;
22778;SDS011;11556;51.194;3.800;2022-10-29T08:40:43;20.92;;;8.57;;
22778;SDS011;11556;51.194;3.800;2022-10-29T08:43:52;19.20;;;7.93;;
22778;SDS011;11556;51.194;3.800;2022-10-29T08:49:18;20.38;;;8.60;;
22778;SDS011;11556;51.194;3.800;2022-10-29T08:51:54;19.70;;;8.85;;
22778;SDS011;11556;51.194;3.800;2022-10-29T08:54:25;23.23;;;10.05;;
22778;SDS011;11556;51.194;3.800;2022-10-29T08:56:53;21.80;;;8.40;;
22778;SDS011;11556;51.194;3.800;2022-10-29T08:59:23;23.67;;;11.80;;
22778;SDS011;11556;51.194;3.800;2022-10-29T09:01:52;24.98;;;8.98;;
22778;SDS011;11556;51.194;3.800;2022-10-29T09:04:22;25.23;;;8.43;;
22778;SDS011;11556;51.194;3.800;2022-10-29T09:21:32;21.05;;;10.15;;
22778;SDS011;11556;51.194;3.800;2022-10-29T09:27:04;33.30;;;17.58;;
22778;SDS011;11556;51.194;3.800;2022-10-29T09:29:40;19.83;;;11.25;;
22778;SDS011;11556;51.194;3.800;2022-10-29T09:32:22;46.92;;;28.77;;
22778;SDS011;11556;51.194;3.800;2022-10-29T09:34:59;37.25;;;22.52;;
22778;SDS011;11556;51.194;3.800;2022-10-29T09:38:11;44.53;;;22.25;;
22778;SDS011;11556;51.194;3.800;2022-10-29T09:40:33;30.92;;;14.73;;
22778;SDS011;11556;51.194;3.800;2022-10-29T09:46:12;32.20;;;16.13;;
22778;SDS011;11556;51.194;3.800;2022-10-29T09:51:37;55.20;;;23.55;;
22778;SDS011;11556;51.194;3.800;2022-10-29T09:54:18;41.22;;;19.17;;
22778;SDS011;11556;51.194;3.800;2022-10-29T09:56:44;50.80;;;19.42;;
22778;SDS011;11556;51.194;3.800;2022-10-29T09:59:20;46.40;;;16.13;;
22778;SDS011;11556;51.194;3.800;2022-10-29T10:01:53;46.17;;;13.25;;
22778;SDS011;11556;51.194;3.800;2022-10-29T10:04:22;43.85;;;11.27;;
22778;SDS011;11556;51.194;3.800;2022-10-29T10:09:28;47.97;;;12.75;;
22778;SDS011;11556;51.194;3.800;2022-10-29T10:12:16;33.47;;;11.00;;
22778;SDS011;11556;51.194;3.800;2022-10-29T10:14:43;45.58;;;13.00;;
22778;SDS011;11556;51.194;3.800;2022-10-29T10:17:11;41.97;;;13.27;;
22778;SDS011;11556;51.194;3.800;2022-10-29T10:19:41;39.65;;;11.82;;
22778;SDS011;11556;51.194;3.800;2022-10-29T10:22:27;30.83;;;10.32;;
22778;SDS011;11556;51.194;3.800;2022-10-29T10:24:54;35.05;;;10.60;;
22778;SDS011;11556;51.194;3.800;2022-10-29T10:27:23;41.53;;;12.15;;
22778;SDS011;11556;51.194;3.800;2022-10-29T10:32:27;42.88;;;13.35;;
22778;SDS011;11556;51.194;3.800;2022-10-29T10:34:53;43.60;;;12.85;;
22778;SDS011;11556;51.194;3.800;2022-10-29T10:37:19;51.03;;;13.55;;
22778;SDS011;11556;51.194;3.800;2022-10-29T10:39:46;48.38;;;12.25;;
22778;SDS011;11556;51.194;3.800;2022-10-29T10:44:51;42.42;;;9.55;;
22778;SDS011;11556;51.194;3.800;2022-10-29T10:47:21;28.60;;;8.50;;
22778;SDS011;11556;51.194;3.800;2022-10-29T10:49:51;38.75;;;9.70;;
22778;SDS011;11556;51.194;3.800;2022-10-29T10:52:21;37.88;;;10.80;;
22778;SDS011;11556;51.194;3.800;2022-10-29T10:54:57;31.83;;;9.48;;
22778;SDS011;11556;51.194;3.800;2022-10-29T10:57:24;36.95;;;9.55;;
22778;SDS011;11556;51.194;3.800;2022-10-29T11:02:46;30.98;;;11.32;;
22778;SDS011;11556;51.194;3.800;2022-10-29T11:05:18;25.85;;;13.75;;
22778;SDS011;11556;51.194;3.800;2022-10-29T11:07:59;27.73;;;9.60;;
22778;SDS011;11556;51.194;3.800;2022-10-29T11:10:54;21.48;;;10.07;;
22778;SDS011;11556;51.194;3.800;2022-10-29T11:13:26;26.80;;;11.52;;
22778;SDS011;11556;51.194;3.800;2022-10-29T11:16:03;27.90;;;13.88;;
22778;SDS011;11556;51.194;3.800;2022-10-29T11:18:34;31.38;;;16.17;;
22778;SDS011;11556;51.194;3.800;2022-10-29T11:24:29;41.35;;;18.60;;
22778;SDS011;11556;51.194;3.800;2022-10-29T11:27:24;21.25;;;7.07;;
22778;SDS011;11556;51.194;3.800;2022-10-29T11:30:05;21.15;;;7.85;;
22778;SDS011;11556;51.194;3.800;2022-10-29T11:43:31;30.65;;;10.38;;
22778;SDS011;11556;51.194;3.800;2022-10-29T11:54:06;29.48;;;11.88;;
22778;SDS011;11556;51.194;3.800;2022-10-29T11:56:48;24.85;;;8.05;;
22778;SDS011;11556;51.194;3.800;2022-10-29T11:59:21;27.88;;;10.68;;
22778;SDS011;11556;51.194;3.800;2022-10-29T12:04:47;18.58;;;6.35;;
22778;SDS011;11556;51.194;3.800;2022-10-29T12:10:37;17.33;;;7.00;;
22778;SDS011;11556;51.194;3.800;2022-10-29T12:13:55;15.13;;;5.13;;
22778;SDS011;11556;51.194;3.800;2022-10-29T12:21:08;17.15;;;4.75;;
22778;SDS011;11556;51.194;3.800;2022-10-29T12:24:17;16.25;;;4.72;;
22778;SDS011;11556;51.194;3.800;2022-10-29T12:27:06;14.15;;;4.57;;
22778;SDS011;11556;51.194;3.800;2022-10-29T12:29:44;14.23;;;4.65;;
22778;SDS011;11556;51.194;3.800;2022-10-29T12:32:22;18.50;;;4.78;;
22778;SDS011;11556;51.194;3.800;2022-10-29T12:35:18;17.13;;;5.20;;
22778;SDS011;11556;51.194;3.800;2022-10-29T12:38:16;14.38;;;4.80;;
22778;SDS011;11556;51.194;3.800;2022-10-29T12:40:42;18.55;;;4.32;;
22778;SDS011;11556;51.194;3.800;2022-10-29T12:43:12;20.15;;;5.00;;
22778;SDS011;11556;51.194;3.800;2022-10-29T12:51:23;14.27;;;4.80;;
22778;SDS011;11556;51.194;3.800;2022-10-29T12:56:48;14.57;;;5.07;;
22778;SDS011;11556;51.194;3.800;2022-10-29T12:59:47;19.95;;;5.30;;
22778;SDS011;11556;51.194;3.800;2022-10-29T13:02:26;15.68;;;5.47;;
22778;SDS011;11556;51.194;3.800;2022-10-29T13:13:00;23.73;;;4.00;;
22778;SDS011;11556;51.194;3.800;2022-10-29T13:15:36;16.73;;;3.88;;
22778;SDS011;11556;51.194;3.800;2022-10-29T13:18:17;19.20;;;4.18;;
22778;SDS011;11556;51.194;3.800;2022-10-29T13:20:51;18.08;;;4.07;;
22778;SDS011;11556;51.194;3.800;2022-10-29T13:25:56;21.67;;;4.47;;
22778;SDS011;11556;51.194;3.800;2022-10-29T13:30:49;17.50;;;5.22;;
22778;SDS011;11556;51.194;3.800;2022-10-29T13:36:01;22.67;;;6.35;;
22778;SDS011;11556;51.194;3.800;2022-10-29T13:41:27;19.65;;;4.68;;
22778;SDS011;11556;51.194;3.800;2022-10-29T13:49:14;15.10;;;4.30;;
22778;SDS011;11556;51.194;3.800;2022-10-29T13:51:50;14.15;;;4.30;;
22778;SDS011;11556;51.194;3.800;2022-10-29T13:54:18;15.45;;;4.25;;
22778;SDS011;11556;51.194;3.800;2022-10-29T13:57:14;18.38;;;4.80;;
22778;SDS011;11556;51.194;3.800;2022-10-29T14:04:52;20.05;;;4.88;;
22778;SDS011;11556;51.194;3.800;2022-10-29T14:09:53;21.90;;;5.00;;
22778;SDS011;11556;51.194;3.800;2022-10-29T14:12:21;20.77;;;4.95;;
22778;SDS011;11556;51.194;3.800;2022-10-29T14:14:54;17.08;;;4.88;;
22778;SDS011;11556;51.194;3.800;2022-10-29T14:17:33;20.98;;;5.50;;
22778;SDS011;11556;51.194;3.800;2022-10-29T14:19:59;21.40;;;6.30;;
22778;SDS011;11556;51.194;3.800;2022-10-29T14:22:32;22.30;;;8.77;;
22778;SDS011;11556;51.194;3.800;2022-10-29T14:25:00;23.25;;;6.47;;
22778;SDS011;11556;51.194;3.800;2022-10-29T14:27:46;16.17;;;5.55;;
22778;SDS011;11556;51.194;3.800;2022-10-29T14:30:31;15.40;;;5.30;;
22778;SDS011;11556;51.194;3.800;2022-10-29T14:32:56;18.85;;;6.07;;
22778;SDS011;11556;51.194;3.800;2022-10-29T14:35:22;19.58;;;6.20;;
22778;SDS011;11556;51.194;3.800;2022-10-29T14:37:48;15.70;;;5.15;;
22778;SDS011;11556;51.194;3.800;2022-10-29T14:40:18;22.98;;;5.57;;
22778;SDS011;11556;51.194;3.800;2022-10-29T14:42:47;27.75;;;9.32;;
22778;SDS011;11556;51.194;3.800;2022-10-29T14:48:11;32.10;;;7.78;;
22778;SDS011;11556;51.194;3.800;2022-10-29T14:50:43;31.30;;;8.10;;
22778;SDS011;11556;51.194;3.800;2022-10-29T14:53:22;25.17;;;7.25;;
22778;SDS011;11556;51.194;3.800;2022-10-29T14:55:55;35.72;;;9.63;;
22778;SDS011;11556;51.194;3.800;2022-10-29T14:58:28;23.40;;;7.03;;
22778;SDS011;11556;51.194;3.800;2022-10-29T15:00:57;26.00;;;6.60;;
22778;SDS011;11556;51.194;3.800;2022-10-29T15:03:26;23.45;;;5.65;;
22778;SDS011;11556;51.194;3.800;2022-10-29T15:06:09;25.90;;;7.05;;
22778;SDS011;11556;51.194;3.800;2022-10-29T15:08:38;31.63;;;7.00;;
22778;SDS011;11556;51.194;3.800;2022-10-29T15:11:26;27.70;;;6.53;;
22778;SDS011;11556;51.194;3.800;2022-10-29T15:13:52;22.42;;;7.18;;
22778;SDS011;11556;51.194;3.800;2022-10-29T15:16:17;18.33;;;7.20;;
22778;SDS011;11556;51.194;3.800;2022-10-29T15:18:46;33.65;;;8.93;;
22778;SDS011;11556;51.194;3.800;2022-10-29T15:21:21;24.48;;;6.80;;
22778;SDS011;11556;51.194;3.800;2022-10-29T15:23:48;28.00;;;7.50;;
22778;SDS011;11556;51.194;3.800;2022-10-29T15:26:22;29.40;;;8.38;;
22778;SDS011;11556;51.194;3.800;2022-10-29T15:28:51;30.73;;;8.93;;
22778;SDS011;11556;51.194;3.800;2022-10-29T15:33:57;32.97;;;8.52;;
22778;SDS011;11556;51.194;3.800;2022-10-29T15:39:21;28.27;;;10.38;;
22778;SDS011;11556;51.194;3.800;2022-10-29T15:41:51;25.40;;;8.95;;
22778;SDS011;11556;51.194;3.800;2022-10-29T15:46:51;29.65;;;7.40;;
22778;SDS011;11556;51.194;3.800;2022-10-29T15:49:22;35.00;;;9.30;;
22778;SDS011;11556;51.194;3.800;2022-10-29T15:51:52;28.70;;;7.65;;
22778;SDS011;11556;51.194;3.800;2022-10-29T15:54:20;21.67;;;6.43;;
22778;SDS011;11556;51.194;3.800;2022-10-29T15:56:45;25.80;;;7.35;;
22778;SDS011;11556;51.194;3.800;2022-10-29T15:59:12;29.83;;;6.75;;
22778;SDS011;11556;51.194;3.800;2022-10-29T16:01:39;27.80;;;6.63;;
22778;SDS011;11556;51.194;3.800;2022-10-29T16:04:04;26.35;;;6.45;;
22778;SDS011;11556;51.194;3.800;2022-10-29T16:06:30;19.40;;;4.75;;
22778;SDS011;11556;51.194;3.800;2022-10-29T16:08:56;17.98;;;4.32;;
22778;SDS011;11556;51.194;3.800;2022-10-29T16:11:23;16.25;;;4.13;;
22778;SDS011;11556;51.194;3.800;2022-10-29T16:13:50;14.35;;;4.32;;
22778;SDS011;11556;51.194;3.800;2022-10-29T16:16:19;18.33;;;4.93;;
22778;SDS011;11556;51.194;3.800;2022-10-29T16:18:47;16.48;;;4.65;;
22778;SDS011;11556;51.194;3.800;2022-10-29T16:21:16;20.70;;;4.70;;
22778;SDS011;11556;51.194;3.800;2022-10-29T16:23:44;17.17;;;5.38;;
22778;SDS011;11556;51.194;3.800;2022-10-29T16:26:14;14.95;;;5.00;;
22778;SDS011;11556;51.194;3.800;2022-10-29T16:28:41;18.63;;;4.93;;
22778;SDS011;11556;51.194;3.800;2022-10-29T16:31:13;18.60;;;6.32;;
22778;SDS011;11556;51.194;3.800;2022-10-29T16:33:55;18.25;;;4.85;;
22778;SDS011;11556;51.194;3.800;2022-10-29T16:36:22;13.93;;;5.20;;
22778;SDS011;11556;51.194;3.800;2022-10-29T16:38:48;14.90;;;4.80;;
22778;SDS011;11556;51.194;3.800;2022-10-29T16:41:15;15.50;;;5.28;;
22778;SDS011;11556;51.194;3.800;2022-10-29T16:43:42;14.18;;;4.45;;
22778;SDS011;11556;51.194;3.800;2022-10-29T16:46:09;20.13;;;5.25;;
22778;SDS011;11556;51.194;3.800;2022-10-29T16:48:35;19.25;;;4.78;;
22778;SDS011;11556;51.194;3.800;2022-10-29T16:51:01;21.33;;;4.95;;
22778;SDS011;11556;51.194;3.800;2022-10-29T16:53:27;11.18;;;4.55;;
22778;SDS011;11556;51.194;3.800;2022-10-29T16:55:52;22.85;;;4.55;;
22778;SDS011;11556;51.194;3.800;2022-10-29T16:58:18;14.05;;;4.50;;
22778;SDS011;11556;51.194;3.800;2022-10-29T17:00:44;15.15;;;4.60;;
22778;SDS011;11556;51.194;3.800;2022-10-29T17:03:11;18.48;;;4.57;;
22778;SDS011;11556;51.194;3.800;2022-10-29T17:05:38;19.02;;;5.30;;